Redan, GA (30074)

07:32 AM EDT on septembrie 02, 2014 (GMT -0400)
Havenridge | Change Station
CLOSE
Current Station
Staţie meteo personală
Location: Conyers, GA
Elevation: 879 ft
Nearby Weather Stations

Elev 879 ft 33.67 °N, 84.08 °W | Updated 6 minutes ago

Cer parţial noros
Cer parţial noros
69.1 °F
Feels Like 69.1 °F
N
0.0
Vânt variabil Vânt from nord

astăzi
High -- | Low -- °F
--% Chance of Precip.
Ieri
High -- | Low -- °F
Precip. -- inch
7:11 AM 8:00 PM
Semilună în creştere, 50% visible
Presiunea 30.07 inch
Vizibilitatea 9.0 mile
Nori Cer senin
Punctul de rouă 67 °F
Umiditatea 92%
Precipitaţii 0.00 inch
Adâncimea zăpezii Not available.
UV 0 out of 12
Pollen 9.20 out of 12
Calitatea aerului Not available.
Flu Activity Not available.
METAR KPDK 021053Z 00000KT 9SM CLR 21/20 A3011 RMK AO2 SLP182 T02110200

More Conditions Fewer Conditions

Presiunea 30.07 inch
Vizibilitatea 9.0 mile
Nori Cer senin
Punctul de rouă 67 °F
Umiditatea 92%
Precipitaţii 0.00 inch
Adâncimea zăpezii Not available.
UV 0 out of 12
Pollen 9.20 out of 12
Calitatea aerului Not available.
Flu Activity Not available.
METAR KPDK 021053Z 00000KT 9SM CLR 21/20 A3011 RMK AO2 SLP182 T02110200

More Conditions Fewer Conditions

10-Day Weather Forecast

Almanac

Astronomie

Sep. 02, 2014 Răsărit Apus
Timpul Actual 7:11 AM EDT 8:00 PM EDT
Crepusculul Civil 6:45 AM EDT 8:26 PM EDT
Crepusculul nautic 6:15 AM EDT 8:56 PM EDT
Răsărit Astronomic 5:44 AM EDT 9:26 PM EDT
Luna 2:34 PM EDT 12:21 AM EDT
Durata zilei lumină 13h 40m
Lungimea zilei
12h 49m
Tomorrow will be 2m 1s shorter.
Semilună în creştere, 50% of the Moon is Illuminated
astăzi
Semilună în creştere
Sep 8
Lună plină
Sep 15
Ultimul pătrar
Sep 24
New
Oct 1
Primul pătrar

Extremele de azi

State Highs State Lows

Community

WunderPhotos

Upload Photos

1,749,621 photos uploaded!

WunderBlogs® & News

By Dr. Jeff Masters
Director of Meteorology, Weather Underground
By Kari Strenfel
Meteorologist, Weather Underground
By Christopher C. Burt
Weather Historian, Weather Underground
September 2, 2014
September 2, 2014
September 2, 2014

Nearby

Calitatea aerului

  Calitatea aerului Index de calitate a aerului Poluat
marţi Moderată
OZONE
marţi Moderată
PM2.5

Adâncimea zapezii

Station Depth Elevation
No new snow has been reported.

Earthquake Activity

Oraş Distance Mag. Time & Date
No recent earthquake activity has been reported nearby.
Minimum magnitude displayed is 2.5.

Coastal Water Temperatures

Locul Temperatura
No Stations Reporting

Nearby Weather Stations